Estación Meteorológica Peña el Pijo (Robertgarden) [ 08/22/19 14:52:15 CEST ]

Fecha Hora Presion(HPa) Temp (°C) Humedad % Rocio (°C) Viento ( m/s) Direccion Lluvia 1Hora(mm) Lluvia 24H(mm) LLuvia Total(mm)
2019-Feb-26 01:01:51 1018.900 1.9 67 -3.6         183.37
2019-Feb-26 02:09:58 1018.800 1.2 67 -4.3         183.37
2019-Feb-26 03:01:42 1018.400 1.2 68 -4.1         183.37
2019-Feb-26 04:01:45 1017.900 0.8 67 -4.7         183.37
2019-Feb-26 05:01:41 1017.700 0.4 69 -4.6         183.37
2019-Feb-26 06:04:08 1017.500 0.4 70 -4.4         183.37
2019-Feb-26 07:01:51 1017.800 0.1 70 -4.7         183.37
2019-Feb-26 08:02:13 1018.400 -0.2 71 -4.8         183.37
2019-Feb-26 09:02:02 1018.600 1.6 74 -2.6         183.37
2019-Feb-26 10:02:11 1018.900 9.3 49 -0.9         183.37
2019-Feb-26 11:01:36 1018.900 14.9 34 -0.9         183.37
2019-Feb-26 12:01:42 1018.500 17.2 28 -1.6         183.37
2019-Feb-26 13:01:48 1018.500 17.1 26 -2.8         183.37
2019-Feb-26 14:01:47 1017.800 17.3 24 -3.7 4.8 NNE     183.37
2019-Feb-26 15:01:58 1017.500 17.1 24 -3.9 5.4 NNW     183.37
2019-Feb-26 16:01:53 1017.500 17.1 24 -3.9         183.37
2019-Feb-26 17:01:36 1017.500 16.4 25 -3.9 2.5 N     183.37
2019-Feb-26 18:01:55 1017.800 14.1 28 -4.3         183.37
2019-Feb-26 19:01:49 1018.100 11.9 32 -4.3         183.37
2019-Feb-26 20:01:55 1018.500 8.1 41 -4.4         183.37
2019-Feb-26 21:01:43 1018.500 6.1 47 -4.4         183.37
2019-Feb-26 22:01:32 1018.600 3.6 52 -5.4         183.37
2019-Feb-26 23:01:42 1018.600 2.8 58 -4.7         183.37

Temperatura Máxima:17°    Temperatura Mínima:
Presión Máxima:1018.900 Hpa    Presión Mínima:1017.500 Hpa


Volver